Time;durP1;ratioP1;P1;durP2;ratioP2;P2;SDS_P1;SDS_P2;PMS_P1;PMS_P2;Temp;Humidity;BMP_temperature;BMP_pressure;BME280_temperature;BME280_humidity;BME280_pressure;Samples;Min_cycle;Max_cycle;Signal;HPM_P1;HPM_P2
2021/11/05 00:01:47;;;;;;;45.30;29.27;;;;;;;8.29;90.67;101051.66;5009738;28;20731;-73
2021/11/05 00:04:13;;;;;;;46.33;30.60;;;;;;;8.28;90.74;101056.69;5009626;28;20187;-73
2021/11/05 00:06:38;;;;;;;46.30;29.43;;;;;;;8.26;90.91;101048.13;5009531;28;20242;-73
2021/11/05 00:09:05;;;;;;;47.80;30.00;;;;;;;8.25;90.89;101054.06;5009671;28;20279;-73
2021/11/05 00:11:31;;;;;;;48.10;30.30;;;;;;;8.25;90.45;101061.72;5009470;28;20297;-73
2021/11/05 00:13:56;;;;;;;45.97;29.80;;;;;;;8.25;90.68;101056.63;5009634;28;20277;-73
2021/11/05 00:16:21;;;;;;;47.40;30.00;;;;;;;8.25;90.07;101061.72;5010413;28;20291;-73
2021/11/05 00:18:47;;;;;;;44.63;30.13;;;;;;;8.24;90.82;101063.38;5009775;28;20179;-72
2021/11/05 00:21:12;;;;;;;44.80;30.70;;;;;;;8.24;90.14;101062.53;5009787;28;20747;-73
2021/11/05 00:23:37;;;;;;;45.87;29.63;;;;;;;8.23;90.43;101069.31;5009602;28;20186;-73
2021/11/05 00:26:03;;;;;;;47.47;30.63;;;;;;;8.24;90.69;101078.69;5009542;28;20199;-73
2021/11/05 00:28:28;;;;;;;47.03;29.70;;;;;;;8.24;90.37;101075.28;5009363;28;20213;-72
2021/11/05 00:30:54;;;;;;;43.93;28.93;;;;;;;8.26;90.23;101083.84;5009446;28;20258;-73
2021/11/05 00:33:19;;;;;;;49.30;30.27;;;;;;;8.25;90.54;101087.22;5009360;28;20236;-73
2021/11/05 00:35:44;;;;;;;43.60;29.00;;;;;;;8.25;90.65;101090.63;5009179;28;20203;-72
2021/11/05 00:38:10;;;;;;;46.73;30.00;;;;;;;8.24;90.50;101096.56;5011905;28;20529;-72
2021/11/05 00:40:35;;;;;;;46.83;30.43;;;;;;;8.23;90.92;101093.94;5011679;28;20214;-72
2021/11/05 00:43:00;;;;;;;53.23;31.10;;;;;;;8.24;91.09;101109.31;5013218;28;20664;-73
2021/11/05 00:45:26;;;;;;;50.50;32.07;;;;;;;8.24;91.19;101099.09;5013121;28;20216;-73
2021/11/05 00:47:51;;;;;;;46.83;31.07;;;;;;;8.22;90.98;101098.19;5012903;28;20159;-73
2021/11/05 00:50:16;;;;;;;48.37;31.67;;;;;;;8.24;90.76;101108.47;5011687;28;20203;-73
2021/11/05 00:52:42;;;;;;;47.13;29.27;;;;;;;8.22;90.71;101110.94;5013002;28;20645;-74
2021/11/05 00:55:08;;;;;;;46.97;30.07;;;;;;;8.23;90.81;101114.34;5012633;28;20234;-73
2021/11/05 00:57:34;;;;;;;45.47;29.47;;;;;;;8.21;90.71;101116.84;5013029;28;20184;-74
2021/11/05 00:59:59;;;;;;;48.30;30.30;;;;;;;8.21;90.04;101116.84;5013135;28;20194;-74
2021/11/05 01:02:25;;;;;;;45.60;29.07;;;;;;;8.21;90.09;101121.09;5012976;28;20547;-74
2021/11/05 01:04:50;;;;;;;45.27;30.27;;;;;;;8.16;90.47;101125.16;5012915;28;20300;-73
2021/11/05 01:07:15;;;;;;;46.90;29.00;;;;;;;8.19;90.05;101125.22;5012619;28;20191;-73
2021/11/05 01:09:41;;;;;;;46.43;29.67;;;;;;;8.18;90.49;101123.50;5012586;28;20204;-74
2021/11/05 01:12:07;;;;;;;43.00;28.47;;;;;;;8.17;89.65;101127.75;5012715;28;20222;-74
2021/11/05 01:14:32;;;;;;;43.27;27.37;;;;;;;8.17;90.38;101132.84;5011484;28;20242;-73
2021/11/05 01:16:58;;;;;;;43.73;29.00;;;;;;;8.15;90.54;101129.38;5012164;28;20203;-73
2021/11/05 01:19:25;;;;;;;46.00;28.83;;;;;;;8.16;90.10;101135.34;5012681;28;20183;-73
2021/11/05 01:21:50;;;;;;;43.00;27.83;;;;;;;8.15;89.60;101144.66;5012421;28;20194;-73
2021/11/05 01:24:16;;;;;;;43.57;27.20;;;;;;;8.15;89.66;101146.38;5012630;28;20282;-73
2021/11/05 01:26:41;;;;;;;43.40;26.97;;;;;;;8.13;89.74;101146.31;5012468;28;20294;-74
2021/11/05 01:29:06;;;;;;;41.83;26.83;;;;;;;8.13;89.63;101153.97;5012778;28;20282;-74
2021/11/05 01:31:32;;;;;;;45.30;28.97;;;;;;;8.12;90.12;101159.00;5012386;28;20573;-74
2021/11/05 01:33:57;;;;;;;43.43;27.63;;;;;;;8.11;90.17;101154.72;5011167;28;20572;-73
2021/11/05 01:36:24;;;;;;;42.97;26.60;;;;;;;8.10;89.65;101158.94;5012354;28;20206;-74
2021/11/05 01:38:49;;;;;;;42.47;26.60;;;;;;;8.09;88.96;101169.09;5012069;28;20278;-74
2021/11/05 01:41:14;;;;;;;42.30;27.17;;;;;;;8.08;89.00;101160.59;5012273;28;20664;-73
2021/11/05 01:43:40;;;;;;;40.77;27.10;;;;;;;8.06;89.54;101166.47;5012073;28;20187;-74
2021/11/05 01:46:08;;;;;;;42.67;25.60;;;;;;;8.02;89.63;101174.81;5011702;28;20203;-73
2021/11/05 01:48:34;;;;;;;40.77;26.20;;;;;;;8.01;89.63;101168.00;5009937;28;20190;-73
2021/11/05 01:51:00;;;;;;;40.10;25.93;;;;;;;8.00;88.83;101169.66;5011731;28;20227;-73
2021/11/05 01:53:25;;;;;;;38.80;25.87;;;;;;;7.98;88.69;101186.59;5011870;28;20308;-74
2021/11/05 01:55:50;;;;;;;37.97;24.87;;;;;;;7.98;88.68;101175.53;5010283;28;20214;-74
2021/11/05 01:58:20;;;;;;;38.00;25.17;;;;;;;7.96;89.04;101188.22;5011894;28;20199;-74
2021/11/05 02:00:45;;;;;;;40.03;25.37;;;;;;;7.96;89.50;101194.97;5011743;28;20187;-74
2021/11/05 02:03:11;;;;;;;37.73;24.10;;;;;;;7.93;89.52;101195.75;5010478;28;20187;-74
2021/11/05 02:05:37;;;;;;;38.97;24.93;;;;;;;7.92;88.77;101194.00;5011465;28;20203;-74
2021/11/05 02:08:04;;;;;;;39.30;25.53;;;;;;;7.89;89.38;101203.25;5011903;28;20646;-74
2021/11/05 02:10:30;;;;;;;36.03;24.30;;;;;;;7.88;88.94;101209.16;5011736;28;20219;-74
2021/11/05 02:12:56;;;;;;;37.30;24.20;;;;;;;7.87;88.63;101205.72;5011584;28;20188;-74
2021/11/05 02:15:24;;;;;;;39.50;24.80;;;;;;;7.86;89.23;101208.22;5009766;28;20565;-74
2021/11/05 02:17:49;;;;;;;40.23;25.40;;;;;;;7.85;89.39;101203.94;5011488;28;20538;-74
2021/11/05 02:20:19;;;;;;;46.60;26.13;;;;;;;7.84;88.94;101210.72;5010090;28;20204;-74
2021/11/05 02:22:46;;;;;;;36.73;24.53;;;;;;;7.85;89.39;101211.59;5009976;28;20282;-74
2021/11/05 02:25:12;;;;;;;39.17;24.67;;;;;;;7.86;89.17;101213.31;5010990;28;20239;-74
2021/11/05 02:27:38;;;;;;;40.53;26.87;;;;;;;7.85;88.42;101211.59;5011112;28;20596;-73
2021/11/05 02:30:07;;;;;;;41.07;24.37;;;;;;;7.84;89.54;101218.34;5011019;28;20669;-74
2021/11/05 02:32:34;;;;;;;38.73;25.30;;;;;;;7.83;88.89;101220.88;5011122;28;20195;-73
2021/11/05 02:34:59;;;;;;;39.97;24.87;;;;;;;7.80;89.39;101224.19;5010988;28;20222;-73
2021/11/05 02:37:27;;;;;;;42.23;25.47;;;;;;;7.80;89.38;101225.84;5010772;28;20192;-74
2021/11/05 02:39:53;;;;;;;38.93;25.43;;;;;;;7.79;88.86;101230.06;5010905;28;20190;-73
2021/11/05 02:42:19;;;;;;;42.10;24.83;;;;;;;7.78;89.71;101232.59;5009710;28;20417;-74
2021/11/05 02:44:46;;;;;;;40.20;25.07;;;;;;;7.75;89.07;101228.25;5010617;28;20187;-74
2021/11/05 02:47:15;;;;;;;41.53;24.60;;;;;;;7.76;89.01;101229.97;5010874;28;20175;-73
2021/11/05 02:49:40;;;;;;;37.17;24.20;;;;;;;7.78;88.96;101242.78;5010813;28;20577;-74
2021/11/05 02:52:06;;;;;;;37.07;23.20;;;;;;;7.75;89.45;101243.53;5010712;28;20215;-74
2021/11/05 02:54:31;;;;;;;38.73;24.27;;;;;;;7.73;89.58;101247.69;5010782;28;20190;-74
2021/11/05 02:56:57;;;;;;;40.80;24.17;;;;;;;7.70;89.22;101250.13;5010181;28;20257;-74
2021/11/05 02:59:23;;;;;;;39.70;24.67;;;;;;;7.68;88.72;101250.88;5010664;28;20763;-74
2021/11/05 03:01:48;;;;;;;42.87;24.63;;;;;;;7.66;89.16;101255.06;5010110;28;20270;-74
2021/11/05 03:04:15;;;;;;;36.03;23.83;;;;;;;7.63;89.66;101258.38;5010649;28;20692;-73
2021/11/05 03:06:42;;;;;;;38.73;24.50;;;;;;;7.67;89.74;101264.44;5009375;28;20629;-74
2021/11/05 03:09:13;;;;;;;37.80;22.93;;;;;;;7.66;89.21;101271.22;5000280;28;20175;-73
2021/11/05 03:11:39;;;;;;;39.40;24.03;;;;;;;7.65;89.43;101273.72;5010079;28;20245;-73
2021/11/05 03:14:05;;;;;;;38.33;23.20;;;;;;;7.63;89.31;101278.75;5010365;28;20195;-74
2021/11/05 03:16:30;;;;;;;42.03;24.97;;;;;;;7.63;90.18;101285.50;4990773;28;20219;-74
2021/11/05 03:18:56;;;;;;;44.23;23.73;;;;;;;7.63;89.80;101285.50;4989699;28;20192;-74
2021/11/05 03:21:21;;;;;;;39.80;23.87;;;;;;;7.61;90.45;101282.06;4995714;28;20194;-74
2021/11/05 03:23:46;;;;;;;39.40;24.50;;;;;;;7.62;89.81;101286.31;5010750;28;20290;-73
2021/11/05 03:26:12;;;;;;;38.17;22.70;;;;;;;7.59;90.04;101293.84;5012098;28;20230;-74
2021/11/05 03:28:37;;;;;;;40.03;24.73;;;;;;;7.58;90.31;101299.75;5011413;28;20227;-74
2021/11/05 03:31:03;;;;;;;39.97;24.33;;;;;;;7.56;89.87;101297.16;5010136;28;20277;-72
2021/11/05 03:33:28;;;;;;;34.30;22.50;;;;;;;7.51;89.62;101306.28;5018484;28;20604;-73
2021/11/05 03:35:54;;;;;;;38.57;23.47;;;;;;;7.52;90.46;101300.41;5029533;28;20803;-74
2021/11/05 03:38:19;;;;;;;38.63;23.17;;;;;;;7.53;89.95;101306.34;5029784;28;20198;-73
2021/11/05 03:40:44;;;;;;;35.40;22.47;;;;;;;7.52;90.14;101314.81;5014661;28;20191;-74
2021/11/05 03:43:10;;;;;;;39.97;23.53;;;;;;;7.50;89.71;101324.94;5009843;28;20191;-74
2021/11/05 03:45:35;;;;;;;36.77;21.90;;;;;;;7.49;90.26;101323.22;5009641;28;20221;-73
2021/11/05 03:48:01;;;;;;;32.47;22.03;;;;;;;7.47;90.13;101334.16;5009861;28;20234;-74
2021/11/05 03:50:26;;;;;;;34.83;22.27;;;;;;;7.44;90.88;101340.00;5009409;28;20218;-73
2021/11/05 03:52:51;;;;;;;34.60;22.37;;;;;;;7.42;89.85;101344.16;5008454;28;20738;-74
2021/11/05 03:55:17;;;;;;;34.27;21.63;;;;;;;7.43;90.02;101348.47;5009689;28;20215;-73
2021/11/05 03:57:42;;;;;;;35.83;21.83;;;;;;;7.46;90.49;101358.75;5009549;28;20195;-74
2021/11/05 04:00:09;;;;;;;36.93;22.27;;;;;;;7.49;90.47;101355.44;5009793;28;20190;-73
2021/11/05 04:02:36;;;;;;;34.37;21.33;;;;;;;7.53;90.55;101360.75;5009503;28;20210;-74
2021/11/05 04:05:02;;;;;;;29.63;20.17;;;;;;;7.54;90.16;101376.88;5008671;28;20310;-74
2021/11/05 04:07:27;;;;;;;32.53;20.97;;;;;;;7.57;89.88;101382.13;5009289;28;20194;-73
2021/11/05 04:09:53;;;;;;;33.63;20.37;;;;;;;7.57;90.54;101374.47;5009646;28;20188;-73
2021/11/05 04:12:19;;;;;;;33.57;21.30;;;;;;;7.56;90.12;101375.28;5010662;28;20207;-73
2021/11/05 04:14:44;;;;;;;31.17;18.30;;;;;;;7.55;90.29;101373.56;5013539;28;20180;-73
2021/11/05 04:17:10;;;;;;;31.67;19.87;;;;;;;7.55;90.41;101379.50;5013469;28;20728;-73
2021/11/05 04:19:35;;;;;;;31.87;21.50;;;;;;;7.58;89.84;101378.75;5013633;28;20238;-73
2021/11/05 04:22:00;;;;;;;30.27;20.20;;;;;;;7.56;89.81;101390.56;5013968;28;20245;-73
2021/11/05 04:24:25;;;;;;;28.17;19.23;;;;;;;7.51;90.84;101394.63;5013658;28;20191;-73
2021/11/05 04:26:51;;;;;;;30.77;19.07;;;;;;;7.48;90.30;101391.94;5013401;28;20298;-73
2021/11/05 04:29:17;;;;;;;27.47;18.43;;;;;;;7.44;90.40;101400.25;5013404;28;20215;-73
2021/11/05 04:31:44;;;;;;;31.00;18.70;;;;;;;7.41;89.59;101398.47;5013300;28;20295;-74
2021/11/05 04:34:10;;;;;;;35.40;19.53;;;;;;;7.38;90.34;101400.03;5013257;28;20237;-74
2021/11/05 04:36:35;;;;;;;27.90;19.07;;;;;;;7.40;89.37;101399.28;5012994;28;20207;-73
2021/11/05 04:39:01;;;;;;;26.37;19.07;;;;;;;7.42;89.76;101410.38;5011822;28;20274;-73
2021/11/05 04:41:26;;;;;;;29.17;18.67;;;;;;;7.45;89.71;101419.81;5013124;28;20715;-74
2021/11/05 04:43:52;;;;;;;28.23;18.87;;;;;;;7.50;90.11;101421.75;5013229;28;20600;-73
2021/11/05 04:46:18;;;;;;;30.23;19.07;;;;;;;7.54;90.11;101423.63;5011272;28;20851;-74
2021/11/05 04:48:43;;;;;;;32.73;19.23;;;;;;;7.57;89.88;101417.78;5013069;28;20187;-74
2021/11/05 04:51:08;;;;;;;27.83;18.63;;;;;;;7.58;90.33;101428.03;5011657;28;20605;-74
2021/11/05 04:53:34;;;;;;;30.77;19.13;;;;;;;7.62;89.72;101439.22;5011988;28;20188;-74
2021/11/05 04:55:59;;;;;;;28.70;18.37;;;;;;;7.64;90.17;101440.19;5011714;28;20954;-74
2021/11/05 04:58:24;;;;;;;27.97;18.23;;;;;;;7.69;90.60;101447.19;5012937;28;20684;-74
2021/11/05 05:00:50;;;;;;;28.77;18.47;;;;;;;7.71;89.84;101449.78;5012678;28;20585;-74
2021/11/05 05:03:15;;;;;;;29.27;18.03;;;;;;;7.72;90.46;101454.06;5012771;28;20541;-74
2021/11/05 05:05:40;;;;;;;29.83;17.70;;;;;;;7.71;90.61;101463.41;5011303;28;20677;-74
2021/11/05 05:08:06;;;;;;;28.40;18.67;;;;;;;7.74;90.75;101458.41;5011377;28;20749;-74
2021/11/05 05:10:31;;;;;;;28.60;19.23;;;;;;;7.76;90.62;101464.47;5012644;28;20689;-74
2021/11/05 05:12:56;;;;;;;28.43;18.43;;;;;;;7.75;90.02;101474.59;5012652;28;20211;-74
2021/11/05 05:15:22;;;;;;;30.47;19.37;;;;;;;7.74;91.03;101473.72;5012346;28;20576;-74
2021/11/05 05:17:48;;;;;;;27.23;18.23;;;;;;;7.74;90.01;101478.81;5012403;28;20672;-74
2021/11/05 05:20:15;;;;;;;27.63;18.17;;;;;;;7.71;90.23;101482.94;4994959;28;20179;-74
2021/11/05 05:22:42;;;;;;;27.17;17.47;;;;;;;7.67;90.31;101488.69;5012450;28;20191;-73
2021/11/05 05:25:09;;;;;;;25.13;17.10;;;;;;;7.66;90.46;101482.75;5007646;28;20208;-74
2021/11/05 05:27:35;;;;;;;28.37;18.10;;;;;;;7.64;90.06;101493.69;5011418;28;20188;-74
2021/11/05 05:30:01;;;;;;;26.40;17.57;;;;;;;7.62;90.00;101496.16;5012123;28;20199;-74
2021/11/05 05:32:26;;;;;;;31.53;17.53;;;;;;;7.63;90.92;101491.94;5011948;28;20249;-74
2021/11/05 05:34:52;;;;;;;27.10;18.47;;;;;;;7.59;90.96;101495.16;5012313;28;20187;-74
2021/11/05 05:37:17;;;;;;;28.07;17.57;;;;;;;7.53;91.27;101495.78;5006010;28;20259;-74
2021/11/05 05:39:43;;;;;;;30.40;17.73;;;;;;;7.50;90.57;101495.66;5008811;28;20258;-74
2021/11/05 05:42:08;;;;;;;32.27;18.23;;;;;;;7.47;90.26;101495.50;5009050;28;20187;-73
2021/11/05 05:44:34;;;;;;;25.77;16.97;;;;;;;7.47;90.71;101500.59;4991167;28;20195;-74
2021/11/05 05:47:00;;;;;;;28.30;17.27;;;;;;;7.41;90.27;101505.44;4992097;28;20206;-73
2021/11/05 05:49:26;;;;;;;29.33;17.23;;;;;;;7.38;91.11;101512.09;4999486;28;20202;-74
2021/11/05 05:51:51;;;;;;;27.60;18.20;;;;;;;7.33;91.02;101516.97;5011866;28;20568;-74
2021/11/05 05:54:16;;;;;;;30.80;18.93;;;;;;;7.31;91.39;101513.50;5011928;28;20234;-74
2021/11/05 05:56:42;;;;;;;32.80;18.20;;;;;;;7.30;90.53;101526.19;5011547;28;20211;-74
2021/11/05 05:59:07;;;;;;;33.27;18.97;;;;;;;7.23;90.90;101530.13;5011706;28;20194;-74
2021/11/05 06:01:32;;;;;;;30.73;18.80;;;;;;;7.23;91.61;101530.13;5010336;28;20817;-74
2021/11/05 06:04:01;;;;;;;29.27;18.07;;;;;;;7.20;91.74;101534.22;5011598;28;20190;-74
2021/11/05 06:06:28;;;;;;;29.53;18.93;;;;;;;7.19;91.05;101540.13;5010012;28;20906;-74
2021/11/05 06:08:54;;;;;;;39.17;19.70;;;;;;;7.11;91.03;101541.47;5026885;28;20190;-74
2021/11/05 06:11:20;;;;;;;31.43;19.57;;;;;;;7.10;91.70;101544.81;5031185;28;20218;-74
2021/11/05 06:13:45;;;;;;;37.93;20.40;;;;;;;7.11;91.44;101552.53;5029959;28;20182;-74
2021/11/05 06:16:10;;;;;;;35.20;19.77;;;;;;;7.08;91.93;101556.59;5031053;28;20199;-74
2021/11/05 06:18:36;;;;;;;31.07;18.53;;;;;;;7.05;92.31;101559.88;5031179;28;20252;-73
2021/11/05 06:21:04;;;;;;;30.30;18.97;;;;;;;7.05;91.87;101567.50;5031200;28;20178;-73
2021/11/05 06:23:29;;;;;;;33.73;19.60;;;;;;;7.07;91.78;101577.78;5046444;28;20194;-73
2021/11/05 06:25:55;;;;;;;33.13;20.47;;;;;;;7.04;91.74;101575.97;5023672;28;20216;-73
2021/11/05 06:28:20;;;;;;;29.60;19.77;;;;;;;7.03;91.59;101583.53;5011180;28;20195;-74
2021/11/05 06:30:45;;;;;;;34.77;19.40;;;;;;;7.02;91.81;101587.75;5011107;28;20211;-74
2021/11/05 06:33:11;;;;;;;35.97;21.03;;;;;;;7.06;91.60;101591.31;5011208;28;20179;-73
2021/11/05 06:35:37;;;;;;;34.80;20.40;;;;;;;7.01;92.66;101596.19;5010337;28;20214;-74
2021/11/05 06:38:02;;;;;;;31.40;20.07;;;;;;;7.00;92.21;101604.63;5011550;28;20668;-74
2021/11/05 06:40:28;;;;;;;31.07;19.37;;;;;;;6.93;92.13;101602.63;5011724;28;20187;-74
2021/11/05 06:42:53;;;;;;;28.93;17.57;;;;;;;6.94;91.01;101609.44;5011524;28;20570;-74
2021/11/05 06:45:20;;;;;;;27.67;17.33;;;;;;;6.87;91.24;101606.56;5011094;28;20707;-74
2021/11/05 06:47:45;;;;;;;29.53;19.13;;;;;;;6.87;90.71;101614.19;5010955;28;20195;-73
2021/11/05 06:50:11;;;;;;;34.40;18.63;;;;;;;6.84;90.50;101614.91;5010988;28;20182;-74
2021/11/05 06:52:36;;;;;;;33.00;19.40;;;;;;;6.92;91.52;101621.25;5011130;28;20528;-74
2021/11/05 06:55:06;;;;;;;29.23;17.90;;;;;;;6.92;91.54;101628.88;5010874;28;20245;-73
2021/11/05 06:57:32;;;;;;;32.90;19.27;;;;;;;6.90;92.06;101627.03;5010926;28;20183;-74
2021/11/05 06:59:58;;;;;;;26.77;17.33;;;;;;;6.83;91.34;101622.47;5008870;28;20183;-74
2021/11/05 07:02:24;;;;;;;32.83;17.77;;;;;;;6.80;90.89;101624.88;4991310;28;20180;-74
2021/11/05 07:04:49;;;;;;;32.83;19.77;;;;;;;6.93;92.20;101630.63;5000948;28;20188;-75
2021/11/05 07:07:14;;;;;;;31.33;19.80;;;;;;;6.97;92.28;101631.63;4996438;28;20239;-75
2021/11/05 07:09:40;;;;;;;32.57;19.77;;;;;;;6.97;91.96;101644.34;4991564;28;20184;-75
2021/11/05 07:12:06;;;;;;;32.17;18.47;;;;;;;6.95;91.92;101636.63;5010311;28;20234;-73
2021/11/05 07:14:31;;;;;;;30.33;18.83;;;;;;;7.02;92.67;101642.88;5010449;28;20190;-74
2021/11/05 07:16:56;;;;;;;33.67;18.63;;;;;;;7.02;92.41;101648.88;5008793;28;20215;-74
2021/11/05 07:19:24;;;;;;;33.63;19.17;;;;;;;7.02;92.95;101648.88;5008659;28;20183;-73
2021/11/05 07:21:58;;;;;;;26.80;17.67;;;;;;;7.05;92.62;101655.78;5010220;28;20218;-73
2021/11/05 07:24:24;;;;;;;27.23;17.30;;;;;;;7.10;92.70;101665.34;5010265;28;20175;-73
2021/11/05 07:26:51;;;;;;;31.40;18.60;;;;;;;7.13;92.91;101668.03;5005185;28;20238;-73
2021/11/05 07:29:23;;;;;;;27.37;17.83;;;;;;;7.17;93.16;101672.47;4990586;28;20194;-73
2021/11/05 07:31:48;;;;;;;29.47;17.80;;;;;;;7.18;92.30;101673.38;5000654;28;20235;-73
2021/11/05 07:34:13;;;;;;;27.87;16.97;;;;;;;7.27;93.25;101673.78;5010180;28;20249;-74
2021/11/05 07:36:39;;;;;;;26.10;17.10;;;;;;;7.31;91.95;101673.97;5009706;28;20290;-73
2021/11/05 07:39:07;;;;;;;25.00;15.67;;;;;;;7.40;92.38;101681.16;5008710;28;20275;-73
2021/11/05 07:41:32;;;;;;;27.80;17.70;;;;;;;7.51;92.86;101687.63;5009687;28;20183;-73
2021/11/05 07:43:58;;;;;;;34.47;17.03;;;;;;;7.61;91.91;101692.31;5008647;28;20182;-74
2021/11/05 07:46:23;;;;;;;25.97;15.37;;;;;;;7.69;91.59;101686.75;5009354;28;20203;-74
2021/11/05 07:48:49;;;;;;;25.73;16.13;;;;;;;7.87;91.92;101687.56;5008514;28;20241;-72
2021/11/05 07:51:14;;;;;;;24.63;15.37;;;;;;;8.05;91.95;101690.03;5009944;28;20203;-72
2021/11/05 07:53:39;;;;;;;22.07;14.83;;;;;;;8.13;92.18;101692.13;5008796;28;20270;-73
2021/11/05 07:56:05;;;;;;;22.40;15.23;;;;;;;8.21;91.29;101702.69;5008347;28;20215;-75
2021/11/05 07:58:31;;;;;;;21.50;14.37;;;;;;;8.29;91.22;101706.44;4998553;28;20238;-73
2021/11/05 08:00:56;;;;;;;21.40;14.00;;;;;;;8.54;90.58;101712.63;5009467;28;20203;-73
2021/11/05 08:03:22;;;;;;;24.37;14.20;;;;;;;8.77;89.82;101716.09;5009302;28;20729;-73
2021/11/05 08:05:48;;;;;;;18.47;12.67;;;;;;;9.01;89.20;101723.06;5009024;28;20711;-73
2021/11/05 08:08:15;;;;;;;19.23;13.07;;;;;;;9.08;88.81;101724.19;5009445;28;20294;-72
2021/11/05 08:10:41;;;;;;;16.23;11.80;;;;;;;9.32;87.65;101720.88;5009008;28;20317;-72
2021/11/05 08:13:06;;;;;;;15.20;11.33;;;;;;;9.34;86.99;101723.47;5009397;28;20285;-72
2021/11/05 08:15:32;;;;;;;13.57;10.37;;;;;;;9.35;86.67;101732.91;5007562;28;20261;-72
2021/11/05 08:17:57;;;;;;;14.27;10.53;;;;;;;9.45;87.22;101735.84;5009586;28;20194;-73
2021/11/05 08:20:22;;;;;;;14.60;10.00;;;;;;;9.55;86.22;101743.09;5000011;28;20282;-73
2021/11/05 08:22:48;;;;;;;15.33;10.03;;;;;;;9.64;86.33;101738.28;4989848;28;20188;-73
2021/11/05 08:25:17;;;;;;;16.90;9.93;;;;;;;9.65;86.17;101745.16;4989812;28;20216;-73
2021/11/05 08:27:43;;;;;;;15.00;10.33;;;;;;;9.65;86.44;101749.41;4989534;28;20650;-72
2021/11/05 08:30:20;;;;;;;12.93;9.40;;;;;;;9.84;85.70;101752.69;4989711;28;20235;-72
2021/11/05 08:32:45;;;;;;;14.47;9.63;;;;;;;9.96;85.30;101760.81;5001364;28;20188;-73
2021/11/05 08:35:11;;;;;;;14.27;10.63;;;;;;;10.00;85.13;101766.94;5009165;28;20196;-74
2021/11/05 08:37:36;;;;;;;15.30;9.53;;;;;;;9.90;85.47;101773.38;5009095;28;20656;-74
2021/11/05 08:40:04;;;;;;;12.80;10.57;;;;;;;9.86;85.96;101773.22;5007477;28;20187;-73
2021/11/05 08:42:29;;;;;;;12.53;10.10;;;;;;;9.83;86.27;101781.66;5009150;28;20184;-73
2021/11/05 08:44:55;;;;;;;12.97;10.33;;;;;;;9.87;86.17;101787.75;5007944;28;20214;-74
2021/11/05 08:47:20;;;;;;;13.03;9.97;;;;;;;9.85;86.05;101787.69;5003507;28;20187;-74
2021/11/05 08:49:50;;;;;;;15.33;10.53;;;;;;;9.94;85.72;101789.72;4999863;28;20241;-74
2021/11/05 08:52:17;;;;;;;14.80;10.03;;;;;;;9.85;86.00;101791.91;4997464;28;20298;-74
2021/11/05 08:54:42;;;;;;;12.73;10.30;;;;;;;9.94;85.90;101795.72;4998572;28;20215;-74
2021/11/05 08:57:07;;;;;;;13.53;9.97;;;;;;;9.98;86.14;101805.25;4997997;28;20409;-73
2021/11/05 08:59:33;;;;;;;14.60;10.00;;;;;;;9.91;86.22;101795.56;5009343;28;20187;-74
2021/11/05 09:01:58;;;;;;;15.27;10.63;;;;;;;9.92;86.33;101805.03;5013015;28;20179;-75
2021/11/05 09:04:23;;;;;;;11.97;9.40;;;;;;;10.04;85.99;101807.16;5012884;28;20716;-74
2021/11/05 09:06:49;;;;;;;12.10;9.87;;;;;;;10.23;85.23;101810.47;5012872;28;20207;-75
2021/11/05 09:09:16;;;;;;;14.20;9.57;;;;;;;10.25;85.34;101803.72;5011617;28;20203;-74
2021/11/05 09:11:41;;;;;;;12.37;9.03;;;;;;;10.52;85.01;101803.81;5012726;28;20680;-73
2021/11/05 09:14:07;;;;;;;15.63;9.30;;;;;;;10.83;84.17;101814.31;5012649;28;20194;-73
2021/11/05 09:16:32;;;;;;;12.00;9.17;;;;;;;10.96;82.32;101822.44;5012582;28;20211;-73
2021/11/05 09:19:02;;;;;;;13.30;8.63;;;;;;;10.47;84.04;101819.00;5003379;28;20718;-74
2021/11/05 09:21:28;;;;;;;14.70;8.77;;;;;;;10.32;85.42;101828.72;5012397;28;20194;-74
2021/11/05 09:23:53;;;;;;;11.50;9.50;;;;;;;10.33;85.75;101839.84;5012459;28;20187;-74
2021/11/05 09:26:21;;;;;;;12.90;9.40;;;;;;;10.31;85.86;101836.34;5012225;28;20206;-74
2021/11/05 09:28:46;;;;;;;12.90;8.67;;;;;;;10.33;85.98;101850.94;5012371;28;20179;-73
2021/11/05 09:31:12;;;;;;;12.53;8.43;;;;;;;10.21;86.34;101847.94;5012214;28;20219;-73
2021/11/05 09:33:38;;;;;;;14.13;8.93;;;;;;;10.21;86.68;101850.50;5011872;28;20195;-73
2021/11/05 09:36:03;;;;;;;12.87;8.83;;;;;;;10.27;87.24;101847.31;5010262;28;20215;-74
2021/11/05 09:38:28;;;;;;;12.73;9.17;;;;;;;10.36;87.07;101851.06;5009452;28;20584;-72
2021/11/05 09:40:54;;;;;;;10.90;7.97;;;;;;;10.63;86.42;101841.78;5010227;28;20544;-72
2021/11/05 09:43:20;;;;;;;13.50;7.77;;;;;;;10.85;85.42;101854.53;5012003;28;20663;-73
2021/11/05 09:45:45;;;;;;;10.60;7.70;;;;;;;12.14;82.85;101852.72;5011796;28;20199;-73
2021/11/05 09:48:11;;;;;;;9.67;5.90;;;;;;;12.72;76.69;101853.53;5011955;28;20187;-73
2021/11/05 09:50:38;;;;;;;10.07;5.43;;;;;;;13.71;73.82;101855.22;5011389;28;20274;-73
2021/11/05 09:53:04;;;;;;;5.60;4.50;;;;;;;14.75;70.31;101846.28;5011745;28;20223;-73
2021/11/05 09:55:31;;;;;;;7.00;4.53;;;;;;;14.93;68.73;101853.50;5011361;28;20316;-73
2021/11/05 09:57:57;;;;;;;7.87;3.87;;;;;;;14.27;68.56;101857.34;5010366;28;20246;-73
2021/11/05 10:00:25;;;;;;;6.63;4.20;;;;;;;17.26;61.46;101853.25;5010333;28;20190;-73
2021/11/05 10:02:51;;;;;;;4.73;3.60;;;;;;;17.19;59.17;101848.88;5010574;28;20202;-75
2021/11/05 10:05:17;;;;;;;4.63;2.80;;;;;;;19.04;54.14;101842.94;5011783;28;20219;-74
2021/11/05 10:07:52;;;;;;;4.03;2.73;;;;;;;15.65;64.48;101859.91;5026693;28;20207;-73
2021/11/05 10:10:25;;;;;;;5.03;3.00;;;;;;;14.56;68.21;101854.53;5010427;28;20194;-72
2021/11/05 10:13:06;;;;;;;6.33;3.40;;;;;;;14.16;69.91;101871.66;5011312;28;20206;-72
2021/11/05 10:15:47;;;;;;;4.03;3.13;;;;;;;13.73;71.55;101875.00;5011503;28;20206;-72
2021/11/05 10:18:15;;;;;;;5.23;3.13;;;;;;;13.42;72.12;101869.09;5011460;28;20180;-72
2021/11/05 10:20:41;;;;;;;9.33;3.33;;;;;;;13.35;73.50;101869.78;5011368;28;20195;-71
2021/11/05 10:23:07;;;;;;;5.30;3.03;;;;;;;13.76;72.42;101874.22;5010012;28;20198;-72
2021/11/05 10:25:48;;;;;;;7.13;3.10;;;;;;;14.15;71.10;101875.97;5010973;28;20203;-72
2021/11/05 10:28:16;;;;;;;5.50;3.13;;;;;;;13.96;70.83;101870.38;5011183;28;20539;-72
2021/11/05 10:30:45;;;;;;;3.80;2.77;;;;;;;13.79;71.97;101877.72;5011041;28;20285;-73
2021/11/05 10:33:14;;;;;;;6.60;3.57;;;;;;;13.82;72.97;101880.38;5011118;28;20608;-72
2021/11/05 10:35:41;;;;;;;6.27;2.87;;;;;;;13.75;72.81;101890.47;5009215;28;20218;-72
2021/11/05 10:38:10;;;;;;;6.23;3.40;;;;;;;13.73;72.80;101889.56;5011215;28;20207;-73
2021/11/05 10:40:41;;;;;;;7.37;2.80;;;;;;;13.78;73.48;101888.84;5010643;28;20234;-73
2021/11/05 10:43:07;;;;;;;6.30;2.40;;;;;;;13.68;72.34;101889.44;5010188;28;20200;-73
2021/11/05 10:45:33;;;;;;;5.07;2.30;;;;;;;13.66;73.10;101891.13;5010762;28;20218;-73
2021/11/05 10:48:04;;;;;;;2.87;1.70;;;;;;;13.78;72.79;101887.97;5010614;28;20202;-73
2021/11/05 10:50:32;;;;;;;4.97;1.80;;;;;;;13.75;72.88;101893.03;5009438;28;20301;-72
2021/11/05 10:53:13;;;;;;;5.87;1.80;;;;;;;13.82;72.60;101889.78;5010708;28;20570;-72
2021/11/05 10:55:55;;;;;;;5.27;1.57;;;;;;;13.60;73.07;101900.41;5010274;28;20226;-72
2021/11/05 10:58:41;;;;;;;5.93;1.47;;;;;;;13.31;74.93;101901.41;5009312;28;20664;-71
2021/11/05 11:01:09;;;;;;;2.77;1.30;;;;;;;13.33;74.21;101898.03;5009215;28;20226;-72
2021/11/05 11:03:43;;;;;;;5.27;1.67;;;;;;;13.18;74.01;101915.66;5010628;28;20282;-72
2021/11/05 11:06:11;;;;;;;4.87;1.40;;;;;;;12.93;75.10;101908.97;5009062;28;20230;-72
2021/11/05 11:08:42;;;;;;;6.10;1.40;;;;;;;12.93;74.76;101903.81;5010571;28;20191;-72
2021/11/05 11:11:19;;;;;;;4.80;1.40;;;;;;;12.84;74.16;101903.56;5009174;28;20241;-72
2021/11/05 11:13:46;;;;;;;5.30;1.53;;;;;;;12.73;74.71;101898.97;5009145;28;20190;-72
2021/11/05 11:16:43;;;;;;;5.70;1.43;;;;;;;12.72;75.21;101905.78;5010345;28;20203;-73